sensor_id;sensor_type;location;lat;lon;timestamp;temperature;humidity
35325;DHT22;35135;47.510;19.036;2023-03-01T00:01:50;21.20;46.10
35325;DHT22;35135;47.510;19.036;2023-03-01T00:04:16;21.20;46.10
35325;DHT22;35135;47.510;19.036;2023-03-01T00:06:43;21.20;46.10
35325;DHT22;35135;47.510;19.036;2023-03-01T00:09:12;21.20;46.20
35325;DHT22;35135;47.510;19.036;2023-03-01T00:11:38;21.20;46.20
35325;DHT22;35135;47.510;19.036;2023-03-01T00:14:04;21.20;46.20
35325;DHT22;35135;47.510;19.036;2023-03-01T00:16:36;21.20;46.20
35325;DHT22;35135;47.510;19.036;2023-03-01T00:19:03;21.20;46.20
35325;DHT22;35135;47.510;19.036;2023-03-01T00:21:29;21.20;46.20
35325;DHT22;35135;47.510;19.036;2023-03-01T00:23:55;21.20;46.20
35325;DHT22;35135;47.510;19.036;2023-03-01T00:26:23;21.20;46.20
35325;DHT22;35135;47.510;19.036;2023-03-01T00:28:49;21.20;46.20
35325;DHT22;35135;47.510;19.036;2023-03-01T00:31:18;21.20;46.20
35325;DHT22;35135;47.510;19.036;2023-03-01T00:33:44;21.10;46.30
35325;DHT22;35135;47.510;19.036;2023-03-01T00:36:12;21.20;46.30
35325;DHT22;35135;47.510;19.036;2023-03-01T00:38:41;21.20;46.20
35325;DHT22;35135;47.510;19.036;2023-03-01T00:41:09;21.20;46.30
35325;DHT22;35135;47.510;19.036;2023-03-01T00:43:35;21.10;46.20
35325;DHT22;35135;47.510;19.036;2023-03-01T00:46:07;21.20;46.30
35325;DHT22;35135;47.510;19.036;2023-03-01T00:48:34;21.10;46.30
35325;DHT22;35135;47.510;19.036;2023-03-01T00:51:07;21.10;46.30
35325;DHT22;35135;47.510;19.036;2023-03-01T00:53:33;21.10;46.30
35325;DHT22;35135;47.510;19.036;2023-03-01T00:55:59;21.10;46.30
35325;DHT22;35135;47.510;19.036;2023-03-01T00:58:25;21.10;46.30
35325;DHT22;35135;47.510;19.036;2023-03-01T01:00:51;21.10;46.30
35325;DHT22;35135;47.510;19.036;2023-03-01T01:03:18;21.10;46.30
35325;DHT22;35135;47.510;19.036;2023-03-01T01:05:43;21.10;46.30
35325;DHT22;35135;47.510;19.036;2023-03-01T01:08:09;21.10;46.30
35325;DHT22;35135;47.510;19.036;2023-03-01T01:10:35;21.10;46.40
35325;DHT22;35135;47.510;19.036;2023-03-01T01:13:01;21.10;46.40
35325;DHT22;35135;47.510;19.036;2023-03-01T01:15:27;21.10;46.40
35325;DHT22;35135;47.510;19.036;2023-03-01T01:17:52;21.10;46.40
35325;DHT22;35135;47.510;19.036;2023-03-01T01:20:18;21.10;46.40
35325;DHT22;35135;47.510;19.036;2023-03-01T01:22:44;21.10;46.40
35325;DHT22;35135;47.510;19.036;2023-03-01T01:25:09;21.10;46.50
35325;DHT22;35135;47.510;19.036;2023-03-01T01:27:36;21.10;46.40
35325;DHT22;35135;47.510;19.036;2023-03-01T01:30:02;21.00;46.30
35325;DHT22;35135;47.510;19.036;2023-03-01T01:32:28;21.00;46.50
35325;DHT22;35135;47.510;19.036;2023-03-01T01:34:53;21.00;46.40
35325;DHT22;35135;47.510;19.036;2023-03-01T01:37:19;21.00;46.40
35325;DHT22;35135;47.510;19.036;2023-03-01T01:39:45;21.00;46.40
35325;DHT22;35135;47.510;19.036;2023-03-01T01:42:17;21.00;46.30
35325;DHT22;35135;47.510;19.036;2023-03-01T01:44:46;21.00;46.30
35325;DHT22;35135;47.510;19.036;2023-03-01T01:47:16;21.00;46.40
35325;DHT22;35135;47.510;19.036;2023-03-01T01:49:49;21.00;46.40
35325;DHT22;35135;47.510;19.036;2023-03-01T01:55:00;21.00;46.40
35325;DHT22;35135;47.510;19.036;2023-03-01T01:57:32;21.00;46.40
35325;DHT22;35135;47.510;19.036;2023-03-01T02:00:22;21.00;46.40
35325;DHT22;35135;47.510;19.036;2023-03-01T02:02:51;21.00;46.40
35325;DHT22;35135;47.510;19.036;2023-03-01T02:05:28;21.00;46.40
35325;DHT22;35135;47.510;19.036;2023-03-01T02:07:58;21.00;46.40
35325;DHT22;35135;47.510;19.036;2023-03-01T02:10:24;21.00;46.40
35325;DHT22;35135;47.510;19.036;2023-03-01T02:12:52;21.00;46.40
35325;DHT22;35135;47.510;19.036;2023-03-01T02:15:18;21.00;46.40
35325;DHT22;35135;47.510;19.036;2023-03-01T02:17:43;21.00;46.40
35325;DHT22;35135;47.510;19.036;2023-03-01T02:22:45;21.00;46.40
35325;DHT22;35135;47.510;19.036;2023-03-01T02:30:18;20.90;46.30
35325;DHT22;35135;47.510;19.036;2023-03-01T02:32:44;20.90;46.40
35325;DHT22;35135;47.510;19.036;2023-03-01T02:35:13;20.90;46.40
35325;DHT22;35135;47.510;19.036;2023-03-01T02:37:41;20.90;46.40
35325;DHT22;35135;47.510;19.036;2023-03-01T02:40:11;20.90;46.30
35325;DHT22;35135;47.510;19.036;2023-03-01T02:42:52;20.90;46.30
35325;DHT22;35135;47.510;19.036;2023-03-01T02:45:19;20.90;46.30
35325;DHT22;35135;47.510;19.036;2023-03-01T02:47:44;20.90;46.30
35325;DHT22;35135;47.510;19.036;2023-03-01T02:50:50;20.90;46.30
35325;DHT22;35135;47.510;19.036;2023-03-01T02:54:03;20.90;46.30
35325;DHT22;35135;47.510;19.036;2023-03-01T02:56:23;20.90;46.30
35325;DHT22;35135;47.510;19.036;2023-03-01T02:58:49;20.90;46.30
35325;DHT22;35135;47.510;19.036;2023-03-01T03:01:18;20.90;46.30
35325;DHT22;35135;47.510;19.036;2023-03-01T03:03:44;20.90;46.30
35325;DHT22;35135;47.510;19.036;2023-03-01T03:06:10;20.90;46.40
35325;DHT22;35135;47.510;19.036;2023-03-01T03:08:36;20.90;46.30
35325;DHT22;35135;47.510;19.036;2023-03-01T03:11:02;20.90;46.30
35325;DHT22;35135;47.510;19.036;2023-03-01T03:13:28;20.90;46.30
35325;DHT22;35135;47.510;19.036;2023-03-01T03:15:56;20.90;46.30
35325;DHT22;35135;47.510;19.036;2023-03-01T03:18:24;20.90;46.30
35325;DHT22;35135;47.510;19.036;2023-03-01T03:20:51;20.90;46.40
35325;DHT22;35135;47.510;19.036;2023-03-01T03:23:19;20.90;46.30
35325;DHT22;35135;47.510;19.036;2023-03-01T03:25:50;20.90;46.40
35325;DHT22;35135;47.510;19.036;2023-03-01T03:28:16;20.90;46.30
35325;DHT22;35135;47.510;19.036;2023-03-01T03:30:42;20.90;46.40
35325;DHT22;35135;47.510;19.036;2023-03-01T03:33:10;20.90;46.30
35325;DHT22;35135;47.510;19.036;2023-03-01T03:35:42;20.90;46.40
35325;DHT22;35135;47.510;19.036;2023-03-01T03:38:10;20.80;46.30
35325;DHT22;35135;47.510;19.036;2023-03-01T03:40:44;20.90;46.40
35325;DHT22;35135;47.510;19.036;2023-03-01T03:43:15;20.90;46.40
35325;DHT22;35135;47.510;19.036;2023-03-01T03:45:44;20.90;46.40
35325;DHT22;35135;47.510;19.036;2023-03-01T03:48:10;20.90;46.40
35325;DHT22;35135;47.510;19.036;2023-03-01T03:50:37;20.90;46.30
35325;DHT22;35135;47.510;19.036;2023-03-01T03:53:11;20.90;46.40
35325;DHT22;35135;47.510;19.036;2023-03-01T03:55:37;20.80;46.30
35325;DHT22;35135;47.510;19.036;2023-03-01T03:58:06;20.80;46.30
35325;DHT22;35135;47.510;19.036;2023-03-01T04:00:33;20.80;46.30
35325;DHT22;35135;47.510;19.036;2023-03-01T04:02:59;20.80;46.30
35325;DHT22;35135;47.510;19.036;2023-03-01T04:05:26;20.80;46.30
35325;DHT22;35135;47.510;19.036;2023-03-01T04:07:52;20.80;46.30
35325;DHT22;35135;47.510;19.036;2023-03-01T04:10:27;20.80;46.30
35325;DHT22;35135;47.510;19.036;2023-03-01T04:12:53;20.80;46.30
35325;DHT22;35135;47.510;19.036;2023-03-01T04:15:22;20.80;46.30
35325;DHT22;35135;47.510;19.036;2023-03-01T04:17:51;20.80;46.30
35325;DHT22;35135;47.510;19.036;2023-03-01T04:20:20;20.80;46.30
35325;DHT22;35135;47.510;19.036;2023-03-01T04:23:16;20.80;46.30
35325;DHT22;35135;47.510;19.036;2023-03-01T04:25:48;20.80;46.20
35325;DHT22;35135;47.510;19.036;2023-03-01T04:31:18;20.80;46.30
35325;DHT22;35135;47.510;19.036;2023-03-01T04:33:49;20.80;46.30
35325;DHT22;35135;47.510;19.036;2023-03-01T04:36:17;20.80;46.30
35325;DHT22;35135;47.510;19.036;2023-03-01T04:38:43;20.80;46.30
35325;DHT22;35135;47.510;19.036;2023-03-01T04:41:13;20.80;46.30
35325;DHT22;35135;47.510;19.036;2023-03-01T04:43:39;20.80;46.30
35325;DHT22;35135;47.510;19.036;2023-03-01T04:46:07;20.70;46.20
35325;DHT22;35135;47.510;19.036;2023-03-01T04:48:35;20.80;46.30
35325;DHT22;35135;47.510;19.036;2023-03-01T04:51:02;20.80;46.30
35325;DHT22;35135;47.510;19.036;2023-03-01T04:53:28;20.80;46.30
35325;DHT22;35135;47.510;19.036;2023-03-01T04:55:55;20.80;46.80
35325;DHT22;35135;47.510;19.036;2023-03-01T04:58:26;20.80;46.20
35325;DHT22;35135;47.510;19.036;2023-03-01T05:00:52;20.70;46.20
35325;DHT22;35135;47.510;19.036;2023-03-01T05:03:19;20.80;46.20
35325;DHT22;35135;47.510;19.036;2023-03-01T05:05:47;20.80;46.30
35325;DHT22;35135;47.510;19.036;2023-03-01T05:08:13;20.80;46.20
35325;DHT22;35135;47.510;19.036;2023-03-01T05:10:50;20.80;46.20
35325;DHT22;35135;47.510;19.036;2023-03-01T05:13:17;20.80;46.10
35325;DHT22;35135;47.510;19.036;2023-03-01T05:15:57;20.80;46.20
35325;DHT22;35135;47.510;19.036;2023-03-01T05:18:24;20.90;46.10
35325;DHT22;35135;47.510;19.036;2023-03-01T05:20:54;21.00;46.00
35325;DHT22;35135;47.510;19.036;2023-03-01T05:23:22;21.20;45.90
35325;DHT22;35135;47.510;19.036;2023-03-01T05:25:48;21.30;45.70
35325;DHT22;35135;47.510;19.036;2023-03-01T05:28:15;21.50;45.40
35325;DHT22;35135;47.510;19.036;2023-03-01T05:30:41;21.60;45.20
35325;DHT22;35135;47.510;19.036;2023-03-01T05:33:07;21.70;44.80
35325;DHT22;35135;47.510;19.036;2023-03-01T05:35:42;21.90;44.70
35325;DHT22;35135;47.510;19.036;2023-03-01T05:38:09;22.00;44.40
35325;DHT22;35135;47.510;19.036;2023-03-01T05:40:38;22.10;44.30
35325;DHT22;35135;47.510;19.036;2023-03-01T05:43:05;22.20;44.10
35325;DHT22;35135;47.510;19.036;2023-03-01T05:45:31;22.30;44.00
35325;DHT22;35135;47.510;19.036;2023-03-01T05:47:58;22.40;43.80
35325;DHT22;35135;47.510;19.036;2023-03-01T05:50:26;22.50;43.70
35325;DHT22;35135;47.510;19.036;2023-03-01T05:52:58;22.60;43.50
35325;DHT22;35135;47.510;19.036;2023-03-01T05:55:24;22.70;43.50
35325;DHT22;35135;47.510;19.036;2023-03-01T05:57:49;22.80;43.50
35325;DHT22;35135;47.510;19.036;2023-03-01T06:00:18;22.80;43.30
35325;DHT22;35135;47.510;19.036;2023-03-01T06:02:44;22.90;43.30
35325;DHT22;35135;47.510;19.036;2023-03-01T06:05:14;23.00;43.10
35325;DHT22;35135;47.510;19.036;2023-03-01T06:07:40;23.00;43.00
35325;DHT22;35135;47.510;19.036;2023-03-01T06:10:07;23.10;42.90
35325;DHT22;35135;47.510;19.036;2023-03-01T06:12:37;23.20;42.70
35325;DHT22;35135;47.510;19.036;2023-03-01T06:15:04;23.20;42.80
35325;DHT22;35135;47.510;19.036;2023-03-01T06:17:33;23.20;42.70
35325;DHT22;35135;47.510;19.036;2023-03-01T06:20:13;23.20;42.80
35325;DHT22;35135;47.510;19.036;2023-03-01T06:22:40;23.10;42.70
35325;DHT22;35135;47.510;19.036;2023-03-01T06:25:06;23.10;42.80
35325;DHT22;35135;47.510;19.036;2023-03-01T06:27:32;23.10;42.80
35325;DHT22;35135;47.510;19.036;2023-03-01T06:29:59;23.10;42.90
35325;DHT22;35135;47.510;19.036;2023-03-01T06:32:28;23.10;42.90
35325;DHT22;35135;47.510;19.036;2023-03-01T06:34:53;23.00;42.90
35325;DHT22;35135;47.510;19.036;2023-03-01T06:37:24;23.00;42.90
35325;DHT22;35135;47.510;19.036;2023-03-01T06:39:52;22.90;42.90
35325;DHT22;35135;47.510;19.036;2023-03-01T06:42:24;22.90;42.90
35325;DHT22;35135;47.510;19.036;2023-03-01T06:44:56;22.80;42.90
35325;DHT22;35135;47.510;19.036;2023-03-01T06:47:22;22.80;43.20
35325;DHT22;35135;47.510;19.036;2023-03-01T06:49:48;22.80;43.30
35325;DHT22;35135;47.510;19.036;2023-03-01T06:52:13;22.70;43.20
35325;DHT22;35135;47.510;19.036;2023-03-01T06:54:39;22.70;43.30
35325;DHT22;35135;47.510;19.036;2023-03-01T06:57:05;22.60;43.30
35325;DHT22;35135;47.510;19.036;2023-03-01T06:59:30;22.60;43.30
35325;DHT22;35135;47.510;19.036;2023-03-01T07:01:56;22.60;43.40
35325;DHT22;35135;47.510;19.036;2023-03-01T07:04:22;22.50;43.30
35325;DHT22;35135;47.510;19.036;2023-03-01T07:06:48;22.50;43.30
35325;DHT22;35135;47.510;19.036;2023-03-01T07:09:23;22.50;43.40
35325;DHT22;35135;47.510;19.036;2023-03-01T07:11:49;22.40;43.40
35325;DHT22;35135;47.510;19.036;2023-03-01T07:14:16;22.40;43.50
35325;DHT22;35135;47.510;19.036;2023-03-01T07:16:41;22.40;43.60
35325;DHT22;35135;47.510;19.036;2023-03-01T07:19:07;22.40;43.40
35325;DHT22;35135;47.510;19.036;2023-03-01T07:21:33;22.40;43.70
35325;DHT22;35135;47.510;19.036;2023-03-01T07:23:58;22.40;43.60
35325;DHT22;35135;47.510;19.036;2023-03-01T07:26:24;22.30;43.70
35325;DHT22;35135;47.510;19.036;2023-03-01T07:28:49;22.30;43.70
35325;DHT22;35135;47.510;19.036;2023-03-01T07:31:15;22.30;43.80
35325;DHT22;35135;47.510;19.036;2023-03-01T07:33:41;22.30;43.60
35325;DHT22;35135;47.510;19.036;2023-03-01T07:36:07;22.30;43.60
35325;DHT22;35135;47.510;19.036;2023-03-01T07:38:33;22.30;43.70
35325;DHT22;35135;47.510;19.036;2023-03-01T07:41:00;22.30;43.10
35325;DHT22;35135;47.510;19.036;2023-03-01T07:43:27;22.20;41.60
35325;DHT22;35135;47.510;19.036;2023-03-01T07:45:53;22.20;41.70
35325;DHT22;35135;47.510;19.036;2023-03-01T07:48:19;22.10;42.10
35325;DHT22;35135;47.510;19.036;2023-03-01T07:50:45;22.10;42.30
35325;DHT22;35135;47.510;19.036;2023-03-01T07:53:10;22.00;42.50
35325;DHT22;35135;47.510;19.036;2023-03-01T07:55:36;22.00;42.70
35325;DHT22;35135;47.510;19.036;2023-03-01T07:58:03;22.00;42.80
35325;DHT22;35135;47.510;19.036;2023-03-01T08:00:29;22.00;42.80
35325;DHT22;35135;47.510;19.036;2023-03-01T08:02:54;22.00;42.80
35325;DHT22;35135;47.510;19.036;2023-03-01T08:05:20;22.00;43.10
35325;DHT22;35135;47.510;19.036;2023-03-01T08:07:47;22.00;43.00
35325;DHT22;35135;47.510;19.036;2023-03-01T08:10:13;22.00;43.00
35325;DHT22;35135;47.510;19.036;2023-03-01T08:12:39;22.00;43.10
35325;DHT22;35135;47.510;19.036;2023-03-01T08:15:05;22.00;43.40
35325;DHT22;35135;47.510;19.036;2023-03-01T08:17:30;22.00;43.30
35325;DHT22;35135;47.510;19.036;2023-03-01T08:19:56;22.00;43.40
35325;DHT22;35135;47.510;19.036;2023-03-01T08:22:22;22.00;43.30
35325;DHT22;35135;47.510;19.036;2023-03-01T08:24:47;22.00;43.50
35325;DHT22;35135;47.510;19.036;2023-03-01T08:27:15;22.00;43.30
35325;DHT22;35135;47.510;19.036;2023-03-01T08:29:41;22.00;43.50
35325;DHT22;35135;47.510;19.036;2023-03-01T08:32:06;22.00;43.50
35325;DHT22;35135;47.510;19.036;2023-03-01T08:34:32;22.00;43.50
35325;DHT22;35135;47.510;19.036;2023-03-01T08:37:00;21.90;43.60
35325;DHT22;35135;47.510;19.036;2023-03-01T08:39:27;21.90;43.50
35325;DHT22;35135;47.510;19.036;2023-03-01T08:41:52;21.90;43.50
35325;DHT22;35135;47.510;19.036;2023-03-01T08:44:18;22.00;43.60
35325;DHT22;35135;47.510;19.036;2023-03-01T08:46:46;21.90;43.50
35325;DHT22;35135;47.510;19.036;2023-03-01T08:49:16;21.90;43.40
35325;DHT22;35135;47.510;19.036;2023-03-01T08:51:43;21.90;43.50
35325;DHT22;35135;47.510;19.036;2023-03-01T08:54:15;21.90;43.50
35325;DHT22;35135;47.510;19.036;2023-03-01T08:56:41;22.00;43.60
35325;DHT22;35135;47.510;19.036;2023-03-01T08:59:08;21.90;43.50
35325;DHT22;35135;47.510;19.036;2023-03-01T09:01:34;21.90;43.40
35325;DHT22;35135;47.510;19.036;2023-03-01T09:04:00;22.00;43.40
35325;DHT22;35135;47.510;19.036;2023-03-01T09:06:26;21.90;43.40
35325;DHT22;35135;47.510;19.036;2023-03-01T09:08:51;21.90;43.40
35325;DHT22;35135;47.510;19.036;2023-03-01T09:11:19;21.90;43.30
35325;DHT22;35135;47.510;19.036;2023-03-01T09:13:47;21.90;43.30
35325;DHT22;35135;47.510;19.036;2023-03-01T09:16:14;21.90;43.40
35325;DHT22;35135;47.510;19.036;2023-03-01T09:18:40;21.90;43.40
35325;DHT22;35135;47.510;19.036;2023-03-01T09:21:12;21.90;43.90
35325;DHT22;35135;47.510;19.036;2023-03-01T09:23:43;21.90;43.20
35325;DHT22;35135;47.510;19.036;2023-03-01T09:26:20;21.90;43.20
35325;DHT22;35135;47.510;19.036;2023-03-01T09:28:48;21.90;43.40
35325;DHT22;35135;47.510;19.036;2023-03-01T09:31:15;21.90;43.20
35325;DHT22;35135;47.510;19.036;2023-03-01T09:33:41;21.90;43.10
35325;DHT22;35135;47.510;19.036;2023-03-01T09:36:14;21.90;43.30
35325;DHT22;35135;47.510;19.036;2023-03-01T09:38:39;21.90;43.20
35325;DHT22;35135;47.510;19.036;2023-03-01T09:44:12;21.90;43.30
35325;DHT22;35135;47.510;19.036;2023-03-01T09:46:42;21.90;43.20
35325;DHT22;35135;47.510;19.036;2023-03-01T09:49:30;21.90;43.20
35325;DHT22;35135;47.510;19.036;2023-03-01T09:54:36;21.90;43.30
35325;DHT22;35135;47.510;19.036;2023-03-01T09:57:35;21.90;43.10
35325;DHT22;35135;47.510;19.036;2023-03-01T10:03:00;21.90;43.20
35325;DHT22;35135;47.510;19.036;2023-03-01T10:05:55;21.90;43.10
35325;DHT22;35135;47.510;19.036;2023-03-01T10:08:36;21.90;43.20
35325;DHT22;35135;47.510;19.036;2023-03-01T10:11:12;21.80;43.20
35325;DHT22;35135;47.510;19.036;2023-03-01T10:19:03;21.80;43.20
35325;DHT22;35135;47.510;19.036;2023-03-01T10:21:39;21.80;43.10
35325;DHT22;35135;47.510;19.036;2023-03-01T10:24:18;21.80;43.40
35325;DHT22;35135;47.510;19.036;2023-03-01T10:26:57;21.80;43.20
35325;DHT22;35135;47.510;19.036;2023-03-01T10:29:31;21.80;43.30
35325;DHT22;35135;47.510;19.036;2023-03-01T10:32:01;21.70;43.30
35325;DHT22;35135;47.510;19.036;2023-03-01T10:34:31;21.80;43.30
35325;DHT22;35135;47.510;19.036;2023-03-01T10:37:18;21.70;43.10
35325;DHT22;35135;47.510;19.036;2023-03-01T10:40:04;21.70;43.20
35325;DHT22;35135;47.510;19.036;2023-03-01T10:42:38;21.70;43.20
35325;DHT22;35135;47.510;19.036;2023-03-01T10:47:44;21.70;43.20
35325;DHT22;35135;47.510;19.036;2023-03-01T10:50:21;21.70;43.30
35325;DHT22;35135;47.510;19.036;2023-03-01T10:53:02;21.70;43.30
35325;DHT22;35135;47.510;19.036;2023-03-01T10:55:36;21.70;43.30
35325;DHT22;35135;47.510;19.036;2023-03-01T11:06:30;21.70;43.40
35325;DHT22;35135;47.510;19.036;2023-03-01T11:08:56;21.70;43.40
35325;DHT22;35135;47.510;19.036;2023-03-01T11:11:33;21.70;43.30
35325;DHT22;35135;47.510;19.036;2023-03-01T11:14:18;21.70;43.40
35325;DHT22;35135;47.510;19.036;2023-03-01T11:16:45;21.70;43.40
35325;DHT22;35135;47.510;19.036;2023-03-01T11:21:39;21.70;43.40
35325;DHT22;35135;47.510;19.036;2023-03-01T11:24:10;21.70;43.40
35325;DHT22;35135;47.510;19.036;2023-03-01T11:26:43;21.70;43.50
35325;DHT22;35135;47.510;19.036;2023-03-01T11:29:30;21.70;43.50
35325;DHT22;35135;47.510;19.036;2023-03-01T11:32:01;21.60;43.50
35325;DHT22;35135;47.510;19.036;2023-03-01T11:34:57;21.60;43.50
35325;DHT22;35135;47.510;19.036;2023-03-01T11:37:39;21.70;43.60
35325;DHT22;35135;47.510;19.036;2023-03-01T11:40:33;21.70;43.60
35325;DHT22;35135;47.510;19.036;2023-03-01T11:50:48;21.70;43.60
35325;DHT22;35135;47.510;19.036;2023-03-01T12:07:09;21.70;43.30
35325;DHT22;35135;47.510;19.036;2023-03-01T12:26:25;21.70;43.30
35325;DHT22;35135;47.510;19.036;2023-03-01T12:35:23;21.70;43.30
35325;DHT22;35135;47.510;19.036;2023-03-01T12:43:04;21.70;43.30
35325;DHT22;35135;47.510;19.036;2023-03-01T12:51:16;21.60;43.20
35325;DHT22;35135;47.510;19.036;2023-03-01T12:53:48;21.60;43.20
35325;DHT22;35135;47.510;19.036;2023-03-01T12:56:21;21.60;43.20
35325;DHT22;35135;47.510;19.036;2023-03-01T13:01:49;21.60;43.20
35325;DHT22;35135;47.510;19.036;2023-03-01T13:11:49;21.60;43.30
35325;DHT22;35135;47.510;19.036;2023-03-01T13:14:44;21.60;43.30
35325;DHT22;35135;47.510;19.036;2023-03-01T13:17:39;21.60;43.30
35325;DHT22;35135;47.510;19.036;2023-03-01T13:20:13;21.60;43.50
35325;DHT22;35135;47.510;19.036;2023-03-01T13:22:39;21.60;43.40
35325;DHT22;35135;47.510;19.036;2023-03-01T13:25:18;21.60;43.50
35325;DHT22;35135;47.510;19.036;2023-03-01T13:27:45;21.60;43.70
35325;DHT22;35135;47.510;19.036;2023-03-01T13:30:40;21.60;43.80
35325;DHT22;35135;47.510;19.036;2023-03-01T13:35:58;21.60;43.80
35325;DHT22;35135;47.510;19.036;2023-03-01T13:49:33;21.70;44.10
35325;DHT22;35135;47.510;19.036;2023-03-01T13:52:02;21.70;44.10
35325;DHT22;35135;47.510;19.036;2023-03-01T13:54:32;21.70;44.30
35325;DHT22;35135;47.510;19.036;2023-03-01T13:56:59;21.70;44.20
35325;DHT22;35135;47.510;19.036;2023-03-01T13:59:25;21.70;44.20
35325;DHT22;35135;47.510;19.036;2023-03-01T14:01:57;21.70;44.10
35325;DHT22;35135;47.510;19.036;2023-03-01T14:04:24;21.70;44.10
35325;DHT22;35135;47.510;19.036;2023-03-01T14:06:51;21.70;44.20
35325;DHT22;35135;47.510;19.036;2023-03-01T14:12:01;21.80;44.40
35325;DHT22;35135;47.510;19.036;2023-03-01T14:19:56;21.70;44.30
35325;DHT22;35135;47.510;19.036;2023-03-01T14:22:28;21.70;44.30
35325;DHT22;35135;47.510;19.036;2023-03-01T14:24:55;21.70;44.10
35325;DHT22;35135;47.510;19.036;2023-03-01T14:27:21;21.80;44.00
35325;DHT22;35135;47.510;19.036;2023-03-01T14:30:00;21.80;44.10
35325;DHT22;35135;47.510;19.036;2023-03-01T14:32:30;21.80;44.10
35325;DHT22;35135;47.510;19.036;2023-03-01T14:34:58;21.80;44.10
35325;DHT22;35135;47.510;19.036;2023-03-01T14:37:32;21.80;44.00
35325;DHT22;35135;47.510;19.036;2023-03-01T14:40:01;21.80;44.00
35325;DHT22;35135;47.510;19.036;2023-03-01T14:42:31;21.80;44.00
35325;DHT22;35135;47.510;19.036;2023-03-01T14:45:00;21.80;44.00
35325;DHT22;35135;47.510;19.036;2023-03-01T14:47:30;21.80;44.20
35325;DHT22;35135;47.510;19.036;2023-03-01T14:50:31;21.80;44.20
35325;DHT22;35135;47.510;19.036;2023-03-01T14:53:00;21.80;44.10
35325;DHT22;35135;47.510;19.036;2023-03-01T14:57:53;21.80;44.20
35325;DHT22;35135;47.510;19.036;2023-03-01T15:00:26;21.80;44.30
35325;DHT22;35135;47.510;19.036;2023-03-01T15:02:53;21.70;44.30
35325;DHT22;35135;47.510;19.036;2023-03-01T15:05:29;21.70;44.30
35325;DHT22;35135;47.510;19.036;2023-03-01T15:07:58;21.70;44.20
35325;DHT22;35135;47.510;19.036;2023-03-01T15:10:27;21.70;44.20
35325;DHT22;35135;47.510;19.036;2023-03-01T15:12:53;21.70;44.20
35325;DHT22;35135;47.510;19.036;2023-03-01T15:17:56;21.70;44.10
35325;DHT22;35135;47.510;19.036;2023-03-01T15:20:24;21.70;44.10
35325;DHT22;35135;47.510;19.036;2023-03-01T15:22:54;21.70;44.20
35325;DHT22;35135;47.510;19.036;2023-03-01T15:25:26;21.70;44.10
35325;DHT22;35135;47.510;19.036;2023-03-01T15:27:53;21.70;44.10
35325;DHT22;35135;47.510;19.036;2023-03-01T15:35:47;21.60;44.10
35325;DHT22;35135;47.510;19.036;2023-03-01T15:40:53;21.60;44.10
35325;DHT22;35135;47.510;19.036;2023-03-01T15:43:43;21.60;44.10
35325;DHT22;35135;47.510;19.036;2023-03-01T15:46:21;21.60;44.10
35325;DHT22;35135;47.510;19.036;2023-03-01T15:48:53;21.60;44.10
35325;DHT22;35135;47.510;19.036;2023-03-01T15:51:26;21.60;44.10
35325;DHT22;35135;47.510;19.036;2023-03-01T15:53:53;21.50;43.40
35325;DHT22;35135;47.510;19.036;2023-03-01T15:56:19;21.50;43.60
35325;DHT22;35135;47.510;19.036;2023-03-01T15:58:45;21.50;43.60
35325;DHT22;35135;47.510;19.036;2023-03-01T16:01:15;21.50;43.80
35325;DHT22;35135;47.510;19.036;2023-03-01T16:03:42;21.50;43.80
35325;DHT22;35135;47.510;19.036;2023-03-01T16:06:11;21.50;43.80
35325;DHT22;35135;47.510;19.036;2023-03-01T16:08:38;21.50;43.80
35325;DHT22;35135;47.510;19.036;2023-03-01T16:11:13;21.50;43.70
35325;DHT22;35135;47.510;19.036;2023-03-01T16:13:39;21.50;43.80
35325;DHT22;35135;47.510;19.036;2023-03-01T16:16:05;21.50;44.50
35325;DHT22;35135;47.510;19.036;2023-03-01T16:18:31;21.50;43.80
35325;DHT22;35135;47.510;19.036;2023-03-01T16:20:56;21.50;43.80
35325;DHT22;35135;47.510;19.036;2023-03-01T16:23:22;21.50;43.90
35325;DHT22;35135;47.510;19.036;2023-03-01T16:25:50;21.50;43.90
35325;DHT22;35135;47.510;19.036;2023-03-01T16:28:16;21.40;43.70
35325;DHT22;35135;47.510;19.036;2023-03-01T16:30:46;21.50;43.80
35325;DHT22;35135;47.510;19.036;2023-03-01T16:33:13;21.50;43.80
35325;DHT22;35135;47.510;19.036;2023-03-01T16:35:40;21.50;43.90
35325;DHT22;35135;47.510;19.036;2023-03-01T16:38:06;21.40;43.80
35325;DHT22;35135;47.510;19.036;2023-03-01T16:40:31;21.40;43.80
35325;DHT22;35135;47.510;19.036;2023-03-01T16:42:58;21.40;43.90
35325;DHT22;35135;47.510;19.036;2023-03-01T16:45:28;21.40;44.00
35325;DHT22;35135;47.510;19.036;2023-03-01T16:47:58;21.40;43.70
35325;DHT22;35135;47.510;19.036;2023-03-01T16:50:24;21.40;43.80
35325;DHT22;35135;47.510;19.036;2023-03-01T16:52:50;21.40;43.80
35325;DHT22;35135;47.510;19.036;2023-03-01T16:55:16;21.40;43.80
35325;DHT22;35135;47.510;19.036;2023-03-01T16:57:42;21.40;43.80
35325;DHT22;35135;47.510;19.036;2023-03-01T17:00:09;21.40;43.80
35325;DHT22;35135;47.510;19.036;2023-03-01T17:02:36;21.40;43.90
35325;DHT22;35135;47.510;19.036;2023-03-01T17:05:02;21.40;43.80
35325;DHT22;35135;47.510;19.036;2023-03-01T17:07:30;21.40;43.80
35325;DHT22;35135;47.510;19.036;2023-03-01T17:09:59;21.30;43.80
35325;DHT22;35135;47.510;19.036;2023-03-01T17:12:25;21.30;43.90
35325;DHT22;35135;47.510;19.036;2023-03-01T17:14:50;21.40;44.00
35325;DHT22;35135;47.510;19.036;2023-03-01T17:17:16;21.40;44.20
35325;DHT22;35135;47.510;19.036;2023-03-01T17:19:42;21.40;44.30
35325;DHT22;35135;47.510;19.036;2023-03-01T17:22:10;21.40;45.20
35325;DHT22;35135;47.510;19.036;2023-03-01T17:24:37;21.40;44.90
35325;DHT22;35135;47.510;19.036;2023-03-01T17:27:04;21.40;45.10
35325;DHT22;35135;47.510;19.036;2023-03-01T17:29:30;21.40;45.00
35325;DHT22;35135;47.510;19.036;2023-03-01T17:31:56;21.40;45.50
35325;DHT22;35135;47.510;19.036;2023-03-01T17:34:22;21.40;45.50
35325;DHT22;35135;47.510;19.036;2023-03-01T17:36:49;21.40;46.10
35325;DHT22;35135;47.510;19.036;2023-03-01T17:39:16;21.40;46.20
35325;DHT22;35135;47.510;19.036;2023-03-01T17:41:44;21.40;46.30
35325;DHT22;35135;47.510;19.036;2023-03-01T17:44:10;21.40;46.70
35325;DHT22;35135;47.510;19.036;2023-03-01T17:46:36;21.40;46.60
35325;DHT22;35135;47.510;19.036;2023-03-01T17:49:02;21.40;46.60
35325;DHT22;35135;47.510;19.036;2023-03-01T17:51:28;21.50;46.70